Time;durP1;ratioP1;P1;durP2;ratioP2;P2;SDS_P1;SDS_P2;PMS_P1;PMS_P2;Temp;Humidity;BMP_temperature;BMP_pressure;BME280_temperature;BME280_humidity;BME280_pressure;Samples;Min_cycle;Max_cycle;Signal;HPM_P1;HPM_P2
2022/06/27 00:00:29;;;;;;;;;1.00;1.00;;;;;18.70;57.91;100660.34;5078274;28;47234;-78
2022/06/27 00:02:54;;;;;;;;;1.00;1.00;;;;;18.63;57.91;100647.28;5077611;27;45455;-78
2022/06/27 00:05:20;;;;;;;;;0.75;0.75;;;;;18.67;57.92;100656.00;5076193;27;45387;-77
2022/06/27 00:07:45;;;;;;;;;1.00;1.00;;;;;18.53;58.26;100635.31;5077201;27;45576;-77
2022/06/27 00:10:14;;;;;;;;;0.75;0.75;;;;;18.55;58.49;100648.63;5075818;28;47851;-77
2022/06/27 00:12:40;;;;;;;;;1.50;1.00;;;;;18.52;58.17;100659.47;5079738;27;45293;-77
2022/06/27 00:15:07;;;;;;;;;1.00;1.00;;;;;18.41;58.48;100662.72;5092649;27;45550;-81
2022/06/27 00:17:33;;;;;;;;;0.25;0.25;;;;;18.46;58.12;100677.59;5084258;27;45487;-81
2022/06/27 00:19:58;;;;;;;;;1.00;0.00;;;;;18.38;58.05;100673.56;5077493;28;45511;-83
2022/06/27 00:22:25;;;;;;;;;1.50;1.00;;;;;18.36;57.62;100662.09;5076977;27;45485;-82
2022/06/27 00:24:50;;;;;;;;;0.75;0.75;;;;;18.39;57.70;100675.31;5079267;27;45402;-82
2022/06/27 00:27:16;;;;;;;;;1.25;1.00;;;;;18.27;58.08;100666.09;5078289;27;45387;-77
2022/06/27 00:29:42;;;;;;;;;0.75;0.75;;;;;18.25;58.02;100660.81;5083514;27;51424;-80
2022/06/27 00:32:08;;;;;;;;;1.00;1.00;;;;;18.26;58.06;100659.88;5083454;27;45415;-81
2022/06/27 00:34:33;;;;;;;;;1.00;0.00;;;;;18.15;58.03;100638.16;5097812;27;45502;-80
2022/06/27 00:36:59;;;;;;;;;3.00;0.25;;;;;18.19;58.55;100650.44;5097269;27;45405;-78
2022/06/27 00:39:24;;;;;;;;;1.00;1.00;;;;;18.13;58.08;100650.75;5095857;27;47343;-81
2022/06/27 00:41:50;;;;;;;;;1.00;1.00;;;;;18.00;58.31;100631.78;5097359;27;45605;-81
2022/06/27 00:44:35;;;;;;;;;2.25;2.00;;;;;18.12;58.38;100654.38;5098472;27;45322;-81
2022/06/27 00:47:02;;;;;;;;;0.00;0.00;;;;;17.89;58.13;100621.63;5098366;27;45330;-81
2022/06/27 00:49:28;;;;;;;;;0.50;0.00;;;;;18.11;58.44;100657.97;5097315;27;45468;-81
2022/06/27 00:51:54;;;;;;;;;2.00;1.00;;;;;18.04;59.09;100651.22;5097851;27;45398;-80
2022/06/27 00:54:19;;;;;;;;;1.00;1.00;;;;;18.00;58.72;100660.31;5097663;27;45525;-76
2022/06/27 00:56:45;;;;;;;;;0.75;0.00;;;;;18.04;58.54;100667.25;5097343;27;45597;-78
2022/06/27 00:59:28;;;;;;;;;0.00;0.00;;;;;17.99;58.83;100653.25;5097307;27;46203;-78
2022/06/27 01:01:54;;;;;;;;;0.75;0.00;;;;;17.97;58.75;100671.19;5103243;27;45406;-81
2022/06/27 01:04:20;;;;;;;;;0.75;0.75;;;;;17.93;58.93;100676.66;5097264;27;45995;-81
2022/06/27 01:06:45;;;;;;;;;0.75;0.75;;;;;18.00;58.70;100671.03;5097219;27;45435;-81
2022/06/27 01:09:11;;;;;;;;;0.00;0.00;;;;;17.70;58.72;100626.09;5095816;27;45426;-81
2022/06/27 01:11:36;;;;;;;;;0.00;0.00;;;;;17.90;58.69;100660.78;5097128;27;45515;-81
2022/06/27 01:14:02;;;;;;;;;2.00;1.00;;;;;17.97;58.93;100676.53;5097395;27;45521;-81
2022/06/27 01:16:28;;;;;;;;;1.00;0.00;;;;;17.89;58.95;100661.72;5099216;27;45442;-78
2022/06/27 01:18:57;;;;;;;;;1.75;1.00;;;;;17.90;59.20;100666.13;5102761;27;45504;-81
2022/06/27 01:21:24;;;;;;;;;1.00;1.00;;;;;17.85;59.07;100654.75;5099795;27;45471;-78
2022/06/27 01:23:51;;;;;;;;;1.00;1.00;;;;;17.78;58.92;100661.34;5097381;27;45414;-77
2022/06/27 01:26:22;;;;;;;;;2.00;2.00;;;;;17.91;58.84;100689.22;5096605;27;45503;-78
2022/06/27 01:28:48;;;;;;;;;2.00;1.75;;;;;17.91;58.76;100683.88;5095434;27;45508;-78
2022/06/27 01:31:15;;;;;;;;;1.75;1.00;;;;;17.94;58.99;100691.75;5101986;27;45488;-77
2022/06/27 01:33:41;;;;;;;;;1.50;0.00;;;;;17.92;58.70;100690.97;5096520;27;45442;-77
2022/06/27 01:38:52;;;;;;;;;2.00;2.00;;;;;17.94;59.00;100691.75;5096280;27;45571;-78
2022/06/27 01:41:18;;;;;;;;;3.00;1.00;;;;;17.96;58.73;100696.16;5096414;27;45322;-77
2022/06/27 01:43:45;;;;;;;;;0.50;0.50;;;;;17.99;58.76;100688.88;5096095;27;45392;-76
2022/06/27 01:46:11;;;;;;;;;1.00;1.00;;;;;18.06;58.45;100682.28;5096112;27;45503;-78
2022/06/27 01:48:38;;;;;;;;;1.00;1.00;;;;;18.06;58.45;100682.28;5095086;27;45492;-76
2022/06/27 01:51:04;;;;;;;;;2.00;1.00;;;;;18.06;58.33;100681.41;5096019;27;45390;-76
2022/06/27 01:53:30;;;;;;;;;0.50;0.50;;;;;18.04;58.08;100676.13;5083182;27;45377;-77
2022/06/27 01:55:56;;;;;;;;;0.75;0.75;;;;;18.04;58.22;100677.97;5076063;27;45494;-77
2022/06/27 01:58:21;;;;;;;;;1.00;1.00;;;;;18.00;58.32;100671.03;5080258;28;45421;-77
2022/06/27 02:00:47;;;;;;;;;1.00;0.50;;;;;17.98;58.03;100672.91;5083324;27;45382;-76
2022/06/27 02:03:12;;;;;;;;;2.00;1.50;;;;;17.97;58.10;100676.53;5080744;27;45351;-76
2022/06/27 02:05:38;;;;;;;;;0.00;0.00;;;;;17.92;58.45;100669.59;5082379;27;45518;-77
2022/06/27 02:08:04;;;;;;;;;2.00;1.00;;;;;17.93;58.42;100665.09;5091926;28;45485;-80
2022/06/27 02:10:30;;;;;;;;;0.00;0.00;;;;;17.91;58.13;100667.84;5079506;27;45335;-81
2022/06/27 02:12:56;;;;;;;;;0.25;0.00;;;;;17.90;57.87;100659.91;5099506;27;45382;-81
2022/06/27 02:15:22;;;;;;;;;0.25;0.25;;;;;17.93;58.22;100665.97;5114755;27;45387;-77
2022/06/27 02:17:48;;;;;;;;;1.00;1.00;;;;;17.82;58.05;100646.88;5109975;27;45432;-77
2022/06/27 02:20:14;;;;;;;;;0.25;0.25;;;;;17.89;58.34;100664.38;5100504;27;45312;-77
2022/06/27 02:22:40;;;;;;;;;0.00;0.00;;;;;17.91;58.54;100656.28;5098408;27;45480;-77
2022/06/27 02:25:06;;;;;;;;;0.00;0.00;;;;;17.84;58.17;100645.00;5096217;27;45411;-77
2022/06/27 02:27:34;;;;;;;;;0.00;0.00;;;;;17.84;58.35;100655.72;5112408;27;46015;-77
2022/06/27 02:30:00;;;;;;;;;1.00;0.00;;;;;17.92;58.23;100668.72;5095521;27;45402;-77
2022/06/27 02:32:28;;;;;;;;;1.75;0.75;;;;;17.90;58.09;100670.59;5098554;27;45367;-80
2022/06/27 02:34:56;;;;;;;;;0.75;0.75;;;;;17.92;57.94;100674.06;5099198;27;45665;-80
2022/06/27 02:37:23;;;;;;;;;0.00;0.00;;;;;17.93;58.16;100671.31;5097634;27;46147;-81
2022/06/27 02:39:49;;;;;;;;;0.00;0.00;;;;;17.77;57.83;100646.25;5097360;27;45362;-80
2022/06/27 02:42:18;;;;;;;;;1.00;1.00;;;;;17.87;58.13;100668.94;5096366;27;45477;-82
2022/06/27 02:44:48;;;;;;;;;2.00;2.00;;;;;17.90;58.15;100676.81;5097133;27;45497;-82
2022/06/27 02:47:14;;;;;;;;;2.50;1.00;;;;;17.89;58.40;100674.22;5097465;27;46220;-82
2022/06/27 02:49:40;;;;;;;;;1.00;1.00;;;;;17.96;58.40;100688.16;5111727;27;44829;-80
2022/06/27 02:52:08;;;;;;;;;1.00;1.00;;;;;17.92;58.77;100685.63;5101987;27;45395;-80
2022/06/27 02:54:43;;;;;;;;;2.00;2.00;;;;;17.92;59.01;100690.97;5097349;27;45478;-80
2022/06/27 02:57:33;;;;;;;;;2.75;1.00;;;;;17.91;59.02;100689.22;5095156;27;45485;-81
2022/06/27 03:00:00;;;;;;;;;1.75;1.00;;;;;17.85;59.41;100686.81;5096369;27;45484;-81
2022/06/27 03:02:28;;;;;;;;;0.00;0.00;;;;;17.84;59.30;100686.91;5096866;27;45457;-81
2022/06/27 03:04:55;;;;;;;;;1.00;1.00;;;;;17.87;59.43;100690.31;5099937;27;45384;-81
2022/06/27 03:07:20;;;;;;;;;1.00;1.00;;;;;17.80;59.51;100675.50;5096021;27;47023;-81
2022/06/27 03:09:46;;;;;;;;;1.00;1.00;;;;;17.80;59.31;100659.47;5095307;27;45373;-79
2022/06/27 03:12:11;;;;;;;;;0.25;0.25;;;;;17.79;59.29;100671.09;5095239;27;45448;-81
2022/06/27 03:14:36;;;;;;;;;1.00;1.00;;;;;17.74;59.02;100659.75;5094965;27;45489;-77
2022/06/27 03:17:02;;;;;;;;;1.25;1.25;;;;;17.82;59.54;100672.75;5094689;27;46894;-77
2022/06/27 03:19:28;;;;;;;;;2.00;2.00;;;;;17.81;59.92;100668.34;5094429;27;45439;-76
2022/06/27 03:21:53;;;;;;;;;1.75;1.75;;;;;17.73;59.43;100653.56;5111629;27;45410;-81
2022/06/27 03:24:20;;;;;;;;;0.00;0.00;;;;;17.77;59.65;100664.97;5095165;27;45458;-82
2022/06/27 03:26:45;;;;;;;;;1.25;1.25;;;;;17.78;59.62;100674.72;5095780;27;46224;-81
2022/06/27 03:29:11;;;;;;;;;2.50;0.50;;;;;17.77;60.03;100667.63;5094481;27;45378;-79
2022/06/27 03:31:36;;;;;;;;;1.00;0.00;;;;;17.68;59.92;100644.03;5095743;27;45686;-77
2022/06/27 03:34:01;;;;;;;;;2.00;1.00;;;;;17.53;59.65;100618.91;5099267;27;45386;-77
2022/06/27 03:36:27;;;;;;;;;1.00;1.00;;;;;17.68;59.90;100652.91;5118855;27;48247;-78
2022/06/27 03:38:52;;;;;;;;;0.00;0.00;;;;;17.73;60.21;100668.72;5099799;27;45318;-77
2022/06/27 03:41:18;;;;;;;;;2.25;1.75;;;;;17.65;60.62;100637.00;5098681;27;45444;-77
2022/06/27 03:43:44;;;;;;;;;0.75;0.75;;;;;17.69;60.15;100640.44;5097632;27;45399;-76
2022/06/27 03:46:09;;;;;;;;;1.00;1.00;;;;;17.69;60.27;100645.78;5114013;27;45405;-76
2022/06/27 03:51:19;;;;;;;;;1.00;1.00;;;;;17.76;59.95;100674.81;5098368;27;45462;-77
2022/06/27 03:53:44;;;;;;;;;2.75;1.50;;;;;17.76;60.51;100668.56;5098131;27;45367;-77
2022/06/27 03:56:09;;;;;;;;;2.50;1.50;;;;;17.71;60.73;100668.78;5097813;27;45421;-77
2022/06/27 03:58:35;;;;;;;;;2.00;0.75;;;;;17.66;60.31;100662.81;5097550;27;45434;-77
2022/06/27 04:01:01;;;;;;;;;0.50;0.25;;;;;17.63;60.53;100656.72;5097884;27;45443;-77
2022/06/27 04:03:27;;;;;;;;;1.50;1.50;;;;;17.65;60.67;100665.56;5097429;27;45473;-77
2022/06/27 04:05:52;;;;;;;;;1.50;1.50;;;;;17.68;60.80;100674.28;5103230;27;45435;-77
2022/06/27 04:08:18;;;;;;;;;0.75;0.75;;;;;17.72;60.76;100681.22;5098513;27;45710;-77
2022/06/27 04:10:43;;;;;;;;;0.00;0.00;;;;;17.77;60.49;100672.97;5122393;27;45409;-82
2022/06/27 04:13:08;;;;;;;;;1.75;1.00;;;;;17.70;60.26;100675.09;5113642;27;45580;-82
2022/06/27 04:15:34;;;;;;;;;2.75;1.00;;;;;17.73;60.33;100684.75;5100588;27;45556;-81
2022/06/27 04:17:59;;;;;;;;;0.00;0.00;;;;;17.72;60.54;100688.38;5100532;27;45376;-81
2022/06/27 04:20:24;;;;;;;;;1.00;1.00;;;;;17.74;60.55;100691.84;5108092;27;45430;-78
2022/06/27 04:22:51;;;;;;;;;1.00;1.00;;;;;17.73;60.85;100703.47;5100339;27;45264;-77
2022/06/27 04:25:16;;;;;;;;;3.00;1.25;;;;;17.73;60.46;100700.78;5097746;27;46155;-78
2022/06/27 04:27:41;;;;;;;;;0.00;0.00;;;;;17.74;59.93;100695.38;5097278;27;45348;-76
2022/06/27 04:30:09;;;;;;;;;1.75;1.75;;;;;17.85;60.74;100716.22;5097417;27;45347;-77
2022/06/27 04:32:34;;;;;;;;;2.00;1.00;;;;;17.78;60.66;100720.16;5097790;27;45482;-77
2022/06/27 04:35:01;;;;;;;;;1.25;1.00;;;;;17.81;60.72;100725.38;5101872;27;45956;-76
2022/06/27 04:37:27;;;;;;;;;1.75;1.75;;;;;17.83;60.81;100734.16;5100229;27;45418;-77
2022/06/27 04:39:52;;;;;;;;;1.00;0.25;;;;;17.85;61.00;100737.63;5097530;27;45395;-76
2022/06/27 04:42:18;;;;;;;;;1.00;1.00;;;;;17.81;60.50;100730.72;5078940;27;45485;-77
2022/06/27 04:44:45;;;;;;;;;2.75;1.25;;;;;17.80;60.61;100728.09;5076663;27;46234;-77
2022/06/27 04:47:13;;;;;;;;;0.00;0.00;;;;;17.83;60.69;100738.66;5076356;27;45344;-78
2022/06/27 04:49:42;;;;;;;;;2.00;1.00;;;;;17.89;60.44;100749.94;5075959;27;45410;-78
2022/06/27 04:52:08;;;;;;;;;2.00;1.00;;;;;17.87;61.05;100733.09;5086051;27;45482;-78
2022/06/27 04:54:34;;;;;;;;;0.50;0.50;;;;;17.82;60.85;100715.53;5076319;27;45521;-78
2022/06/27 04:57:00;;;;;;;;;1.00;1.00;;;;;17.78;61.08;100720.16;5076457;27;45421;-77
2022/06/27 04:59:25;;;;;;;;;1.00;1.00;;;;;17.75;60.76;100714.97;5076521;27;45497;-77
2022/06/27 05:01:51;;;;;;;;;1.50;1.50;;;;;17.84;61.09;100710.97;5076867;28;45323;-77
2022/06/27 05:04:21;;;;;;;;;1.00;1.00;;;;;17.85;60.67;100705.53;5075588;28;46997;-76
2022/06/27 05:06:48;;;;;;;;;1.00;1.00;;;;;17.69;60.92;100669.81;5081999;27;45479;-82
2022/06/27 05:09:14;;;;;;;;;2.50;0.00;;;;;17.85;61.27;100692.16;5083558;27;45356;-81
2022/06/27 05:11:41;;;;;;;;;1.00;1.00;;;;;17.92;61.04;100699.00;5078695;27;45333;-81
2022/06/27 05:14:07;;;;;;;;;1.00;1.00;;;;;17.97;61.44;100720.16;5076816;27;46895;-81
2022/06/27 05:16:32;;;;;;;;;1.00;0.00;;;;;18.01;60.67;100731.59;5076622;28;45442;-82
2022/06/27 05:18:58;;;;;;;;;6.00;1.75;;;;;18.08;60.60;100727.66;5074850;27;45268;-82
2022/06/27 05:21:24;;;;;;;;;1.00;1.00;;;;;18.14;60.46;100705.94;5076946;27;45334;-81
2022/06/27 05:23:52;;;;;;;;;2.00;1.25;;;;;18.28;60.13;100706.16;5077540;27;46399;-82
2022/06/27 05:26:18;;;;;;;;;4.50;1.00;;;;;18.37;59.76;100703.94;5076130;27;45570;-78
2022/06/27 05:28:44;;;;;;;;;2.00;1.00;;;;;18.37;59.54;100669.16;5075560;27;45513;-78
2022/06/27 05:31:12;;;;;;;;;1.00;1.00;;;;;18.59;59.18;100706.41;5082200;27;45471;-82
2022/06/27 05:33:38;;;;;;;;;0.00;0.00;;;;;18.66;58.80;100718.53;5096563;27;46152;-78
2022/06/27 05:36:04;;;;;;;;;1.00;1.00;;;;;18.84;58.22;100719.34;5101616;27;45369;-81
2022/06/27 05:38:31;;;;;;;;;2.00;1.00;;;;;19.01;57.94;100702.47;5102376;27;45365;-80
2022/06/27 05:40:57;;;;;;;;;2.00;2.00;;;;;19.14;58.39;100718.72;5098419;27;45440;-81
2022/06/27 05:43:23;;;;;;;;;0.50;0.50;;;;;19.16;57.62;100738.25;5095322;27;45476;-81
2022/06/27 05:45:48;;;;;;;;;3.00;1.00;;;;;19.07;57.34;100733.38;5096349;27;45468;-80
2022/06/27 05:48:14;;;;;;;;;5.00;2.00;;;;;18.99;57.70;100721.28;5095938;27;45485;-78
2022/06/27 05:50:43;;;;;;;;;1.50;1.50;;;;;18.93;58.00;100718.94;5100723;27;45526;-76
2022/06/27 05:53:08;;;;;;;;;1.75;1.00;;;;;18.80;57.81;100694.56;5099533;27;46355;-78
2022/06/27 05:55:33;;;;;;;;;0.75;0.50;;;;;18.93;57.49;100721.63;5097138;27;45334;-77
2022/06/27 05:58:02;;;;;;;;;1.00;1.00;;;;;18.96;57.24;100742.88;5097963;27;45413;-81
2022/06/27 06:00:29;;;;;;;;;0.50;0.00;;;;;18.84;57.51;100743.47;5099516;27;45490;-77
2022/06/27 06:02:55;;;;;;;;;0.00;0.00;;;;;18.82;58.62;100753.41;5108996;27;47790;-80
2022/06/27 06:05:21;;;;;;;;;1.00;1.00;;;;;18.61;57.76;100732.16;5112481;27;45348;-77
2022/06/27 06:07:48;;;;;;;;;1.00;0.00;;;;;18.74;57.92;100769.00;5105948;27;45256;-77
2022/06/27 06:10:14;;;;;;;;;2.00;2.00;;;;;18.80;57.96;100769.53;5107387;27;45327;-76
2022/06/27 06:12:40;;;;;;;;;0.75;0.75;;;;;18.80;58.06;100768.69;5104337;27;45483;-82
2022/06/27 06:15:06;;;;;;;;;2.50;2.00;;;;;18.70;57.97;100752.22;5098663;27;45382;-80
2022/06/27 06:17:33;;;;;;;;;2.00;2.00;;;;;18.71;58.25;100764.66;5097421;27;45580;-81
2022/06/27 06:20:02;;;;;;;;;2.00;2.00;;;;;18.77;58.69;100752.78;5096854;27;45531;-78
2022/06/27 06:22:28;;;;;;;;;2.00;0.75;;;;;18.82;58.42;100740.00;5095507;27;47248;-83
2022/06/27 06:24:54;;;;;;;;;1.00;1.00;;;;;18.87;58.79;100743.34;5098723;27;45302;-82
2022/06/27 06:27:23;;;;;;;;;3.25;2.50;;;;;18.96;58.27;100764.31;5098192;27;45409;-82
2022/06/27 06:29:49;;;;;;;;;2.50;1.00;;;;;19.13;57.67;100792.00;5095119;27;45480;-78
2022/06/27 06:32:15;;;;;;;;;1.00;1.00;;;;;19.22;57.26;100786.19;5095642;27;46208;-78
2022/06/27 06:34:42;;;;;;;;;0.25;0.25;;;;;19.22;57.32;100764.75;5094071;27;45719;-78
2022/06/27 06:37:09;;;;;;;;;2.50;1.25;;;;;19.35;56.60;100787.22;5095674;27;45395;-77
2022/06/27 06:39:35;;;;;;;;;3.25;2.00;;;;;19.17;57.29;100769.47;5098730;27;45442;-77
2022/06/27 06:42:00;;;;;;;;;3.00;2.00;;;;;19.40;56.69;100784.31;5095558;27;46218;-77
2022/06/27 06:44:26;;;;;;;;;5.00;1.75;;;;;19.55;56.53;100779.94;5096060;27;45433;-77
2022/06/27 06:46:54;;;;;;;;;2.00;2.00;;;;;19.74;56.03;100778.91;5095622;27;45332;-78
2022/06/27 06:49:20;;;;;;;;;1.25;1.25;;;;;20.24;54.28;100777.94;5095725;27;45470;-82
2022/06/27 06:51:46;;;;;;;;;2.00;1.00;;;;;20.54;53.21;100787.84;5094666;27;46147;-78
2022/06/27 06:54:12;;;;;;;;;2.00;1.00;;;;;20.65;53.10;100806.94;5076192;27;45400;-78
2022/06/27 06:56:39;;;;;;;;;2.00;2.00;;;;;20.55;52.78;100805.69;5074925;27;45357;-78
2022/06/27 06:59:05;;;;;;;;;1.00;1.00;;;;;20.48;53.18;100799.81;5074653;27;45600;-76
2022/06/27 07:01:35;;;;;;;;;1.00;1.00;;;;;20.57;53.08;100825.25;5075722;27;46445;-82
2022/06/27 07:04:02;;;;;;;;;1.00;1.00;;;;;20.56;52.89;100823.53;5075081;27;45387;-83
2022/06/27 07:06:29;;;;;;;;;2.25;0.25;;;;;20.56;53.16;100836.97;5074455;27;45462;-82
2022/06/27 07:08:57;;;;;;;;;0.50;0.50;;;;;20.56;52.92;100845.03;5075837;27;45328;-81
2022/06/27 07:11:27;;;;;;;;;1.50;0.75;;;;;20.37;52.75;100840.69;5094558;27;46253;-81
2022/06/27 07:13:53;;;;;;;;;0.75;0.75;;;;;20.35;52.29;100857.84;5099628;27;45290;-80
2022/06/27 07:16:20;;;;;;;;;0.00;0.00;;;;;20.30;52.08;100863.47;5096279;27;45389;-81
2022/06/27 07:18:46;;;;;;;;;2.00;2.00;;;;;20.28;52.69;100860.00;5095123;27;45406;-78
2022/06/27 07:21:17;;;;;;;;;1.50;1.50;;;;;20.22;52.17;100850.50;5094617;27;46310;-77
2022/06/27 07:23:46;;;;;;;;;1.00;1.00;;;;;20.22;52.43;100853.19;5094595;27;45334;-79
2022/06/27 07:26:12;;;;;;;;;3.00;1.75;;;;;20.23;52.30;100875.50;5094467;27;45398;-77
2022/06/27 07:28:38;;;;;;;;;1.75;1.75;;;;;20.24;52.65;100866.50;5094640;27;45386;-77
2022/06/27 07:31:08;;;;;;;;;1.00;1.00;;;;;20.25;52.46;100857.47;5094281;27;46200;-78
2022/06/27 07:33:36;;;;;;;;;1.50;1.50;;;;;20.40;52.28;100856.59;5094370;27;45575;-77
2022/06/27 07:36:03;;;;;;;;;1.00;1.00;;;;;20.47;51.65;100849.09;5094175;27;45397;-78
2022/06/27 07:38:32;;;;;;;;;2.00;2.00;;;;;20.61;51.37;100847.44;5112592;27;45503;-78
2022/06/27 07:40:58;;;;;;;;;0.50;0.00;;;;;20.81;51.04;100849.00;5098787;27;46183;-77
2022/06/27 07:43:23;;;;;;;;;1.00;1.00;;;;;20.79;50.61;100818.69;5094714;27;45524;-78
2022/06/27 07:45:48;;;;;;;;;2.00;1.00;;;;;21.19;50.05;100852.06;5093243;27;45370;-78
2022/06/27 07:48:17;;;;;;;;;2.50;0.00;;;;;21.52;48.91;100855.53;5094754;27;45503;-78
2022/06/27 07:50:42;;;;;;;;;0.00;0.00;;;;;21.80;47.72;100850.19;5092518;27;45444;-78
2022/06/27 07:53:19;;;;;;;;;0.25;0.25;;;;;21.93;48.31;100857.47;5094047;27;45453;-78
2022/06/27 07:55:59;;;;;;;;;1.00;0.50;;;;;21.97;47.51;100861.66;5094473;27;45418;-78
2022/06/27 07:58:30;;;;;;;;;1.00;1.00;;;;;22.11;46.82;100864.38;5094621;27;45732;-77
2022/06/27 08:00:57;;;;;;;;;1.00;0.00;;;;;22.23;46.46;100861.84;5092874;27;47692;-77
2022/06/27 08:06:11;;;;;;;;;0.00;0.00;;;;;22.60;46.19;100864.88;5094913;27;45382;-81
2022/06/27 08:08:41;;;;;;;;;1.50;0.25;;;;;22.82;45.48;100853.50;5104913;27;45472;-81
2022/06/27 08:11:09;;;;;;;;;0.00;0.00;;;;;23.28;44.92;100861.19;5108630;27;48257;-81
2022/06/27 08:13:35;;;;;;;;;1.00;1.00;;;;;23.97;43.77;100855.50;5100364;27;45400;-81
2022/06/27 08:16:02;;;;;;;;;2.75;1.00;;;;;24.41;43.13;100866.72;5095532;27;45374;-81
2022/06/27 08:18:31;;;;;;;;;1.00;1.00;;;;;24.47;42.06;100879.78;5112525;27;45411;-82
2022/06/27 08:20:57;;;;;;;;;3.00;3.00;;;;;24.32;41.85;100892.56;5097396;27;45689;-82
2022/06/27 08:23:23;;;;;;;;;0.00;0.00;;;;;24.03;42.15;100884.75;5098032;27;45305;-81
2022/06/27 08:25:48;;;;;;;;;0.75;0.75;;;;;23.78;42.57;100880.22;5098008;27;45470;-80
2022/06/27 08:28:16;;;;;;;;;2.25;1.00;;;;;23.63;42.88;100897.50;5097839;27;45276;-81
2022/06/27 08:30:42;;;;;;;;;0.00;0.00;;;;;23.32;43.29;100883.41;5098353;27;45363;-81
2022/06/27 08:33:08;;;;;;;;;0.00;0.00;;;;;23.19;44.02;100870.78;5098099;27;45375;-81
2022/06/27 08:35:35;;;;;;;;;0.00;0.00;;;;;23.34;43.95;100898.53;5098119;27;45469;-81
2022/06/27 08:38:01;;;;;;;;;1.00;1.00;;;;;23.48;43.73;100904.81;5099129;27;45588;-81
2022/06/27 08:40:28;;;;;;;;;2.00;2.00;;;;;23.60;43.31;100907.50;5115592;27;46713;-82
2022/06/27 08:42:55;;;;;;;;;0.00;0.00;;;;;23.62;44.06;100901.16;5102020;27;45276;-82
2022/06/27 08:45:23;;;;;;;;;1.00;0.00;;;;;23.63;43.09;100892.94;5101509;27;45444;-78
2022/06/27 08:47:50;;;;;;;;;2.00;1.00;;;;;23.48;42.43;100886.78;5098580;27;45478;-77
2022/06/27 08:50:17;;;;;;;;;0.50;0.50;;;;;23.92;43.39;100904.41;5096624;27;46375;-81
2022/06/27 08:52:45;;;;;;;;;1.00;1.00;;;;;24.41;41.85;100891.88;5098080;27;45462;-82
2022/06/27 08:55:11;;;;;;;;;0.00;0.00;;;;;25.59;40.82;100896.66;5097713;27;45511;-82
2022/06/27 08:57:41;;;;;;;;;1.00;1.00;;;;;26.19;38.75;100891.88;5097973;27;45395;-82
2022/06/27 09:00:09;;;;;;;;;0.00;0.00;;;;;26.40;37.63;100886.56;5100886;27;46719;-82
2022/06/27 09:02:41;;;;;;;;;0.25;0.25;;;;;26.98;37.30;100886.31;5100074;27;45378;-82
2022/06/27 09:05:18;;;;;;;;;0.50;0.50;;;;;27.89;35.14;100869.50;5097120;27;45345;-77
2022/06/27 09:07:52;;;;;;;;;0.00;0.00;;;;;28.60;33.19;100865.91;5096926;27;45487;-78
2022/06/27 09:10:28;;;;;;;;;1.00;1.00;;;;;29.47;32.55;100862.31;5096380;27;45457;-78
2022/06/27 09:13:02;;;;;;;;;0.00;0.00;;;;;29.80;31.64;100872.81;5100621;27;45597;-77
2022/06/27 09:15:46;;;;;;;;;1.00;0.00;;;;;29.83;31.19;100862.50;5096355;27;45451;-77
2022/06/27 09:18:15;;;;;;;;;0.00;0.00;;;;;29.91;30.20;100878.97;5096463;27;45560;-77
2022/06/27 09:21:15;;;;;;;;;0.00;0.00;;;;;30.17;29.85;100878.28;5096095;27;45331;-78
2022/06/27 09:23:48;;;;;;;;;1.00;0.00;;;;;30.88;28.57;100878.53;5092700;27;45459;-83
2022/06/27 09:26:19;;;;;;;;;0.00;0.00;;;;;31.34;28.07;100873.88;5098684;27;45410;-78
2022/06/27 09:28:48;;;;;;;;;0.00;0.00;;;;;31.80;27.75;100879.13;5096761;27;45551;-82
2022/06/27 09:31:25;;;;;;;;;1.00;1.00;;;;;32.13;26.75;100873.84;5098247;27;45543;-81
2022/06/27 09:33:59;;;;;;;;;0.00;0.00;;;;;32.51;26.13;100877.03;5095856;27;45462;-78
2022/06/27 09:36:27;;;;;;;;;0.00;0.00;;;;;32.82;26.11;100873.72;5096470;27;45494;-81
2022/06/27 09:38:55;;;;;;;;;0.00;0.00;;;;;33.17;24.89;100858.84;5096611;27;45485;-82
2022/06/27 09:41:21;;;;;;;;;1.00;1.00;;;;;33.31;25.56;100853.72;5097690;27;45505;-82
2022/06/27 09:43:49;;;;;;;;;0.00;0.00;;;;;33.49;24.33;100862.59;5100791;27;45422;-82
2022/06/27 09:46:17;;;;;;;;;0.00;0.00;;;;;33.84;24.65;100874.16;5100094;27;45651;-82
2022/06/27 09:48:45;;;;;;;;;1.00;0.00;;;;;33.92;23.78;100873.28;5097104;27;45560;-76
2022/06/27 09:51:15;;;;;;;;;2.00;0.00;;;;;34.00;24.06;100862.31;5096399;27;45473;-77
2022/06/27 09:53:44;;;;;;;;;0.00;0.00;;;;;34.19;23.79;100858.25;5096250;27;45599;-78
2022/06/27 09:56:12;;;;;;;;;0.00;0.00;;;;;34.45;23.82;100855.25;5097566;27;45398;-80
2022/06/27 09:58:38;;;;;;;;;1.25;0.00;;;;;34.58;23.38;100859.28;5097353;27;45348;-78
2022/06/27 10:01:07;;;;;;;;;0.00;0.00;;;;;34.52;22.77;100877.31;5095551;27;48671;-77
2022/06/27 10:03:35;;;;;;;;;0.00;0.00;;;;;34.21;22.05;100853.47;5105016;27;45338;-77
2022/06/27 10:06:00;;;;;;;;;0.00;0.00;;;;;34.27;23.01;100858.28;5104999;27;44749;-79
2022/06/27 10:08:27;;;;;;;;;0.00;0.00;;;;;34.45;22.48;100866.22;5106384;27;45655;-79
2022/06/27 10:11:06;;;;;;;;;0.00;0.00;;;;;34.43;22.70;100862.78;5104306;27;45656;-77
2022/06/27 10:13:32;;;;;;;;;1.00;0.75;;;;;34.75;23.13;100866.34;5098112;27;45541;-78
2022/06/27 10:15:59;;;;;;;;;2.00;0.00;;;;;34.65;22.29;100871.22;5098230;27;45410;-78
2022/06/27 10:18:24;;;;;;;;;0.00;0.00;;;;;34.54;21.96;100877.97;5101799;27;45315;-82
2022/06/27 10:20:52;;;;;;;;;0.00;0.00;;;;;34.68;22.90;100884.56;5106095;27;45455;-81
2022/06/27 10:23:26;;;;;;;;;0.00;0.00;;;;;34.70;21.52;100879.78;5098979;27;45540;-81
2022/06/27 10:25:53;;;;;;;;;0.00;0.00;;;;;34.62;21.37;100888.91;5098575;27;45390;-83
2022/06/27 10:28:20;;;;;;;;;0.00;0.00;;;;;34.72;22.98;100872.22;5097591;27;45454;-80
2022/06/27 10:31:08;;;;;;;;;1.75;0.75;;;;;34.98;22.71;100876.50;5091095;27;45434;-81
2022/06/27 10:33:34;;;;;;;;;0.50;0.50;;;;;35.08;21.79;100877.13;5075136;27;45557;-81
2022/06/27 10:36:11;;;;;;;;;1.00;0.00;;;;;35.13;22.08;100885.63;5076234;27;45348;-83
2022/06/27 10:38:39;;;;;;;;;0.00;0.00;;;;;35.24;21.56;100887.09;5085705;27;45458;-80
2022/06/27 10:41:07;;;;;;;;;0.00;0.00;;;;;34.94;21.55;100894.38;5081012;28;45533;-82
2022/06/27 10:43:38;;;;;;;;;0.00;0.00;;;;;34.72;21.94;100883.19;5075900;28;45673;-81
2022/06/27 10:46:09;;;;;;;;;0.00;0.00;;;;;34.67;22.48;100885.63;5078417;27;45587;-82
2022/06/27 10:48:47;;;;;;;;;0.00;0.00;;;;;34.55;22.41;100860.50;5077064;27;45572;-82
2022/06/27 10:51:29;;;;;;;;;0.00;0.00;;;;;35.06;21.78;100873.72;5082319;27;45469;-82
2022/06/27 10:54:04;;;;;;;;;0.75;0.00;;;;;35.08;22.57;100881.75;5096096;27;45513;-82
2022/06/27 10:56:29;;;;;;;;;0.00;0.00;;;;;35.17;22.89;100881.50;5095685;27;45371;-83
2022/06/27 10:58:59;;;;;;;;;0.00;0.00;;;;;35.07;22.46;100880.88;5095233;27;45328;-81
2022/06/27 11:01:25;;;;;;;;;0.00;0.00;;;;;34.73;22.36;100892.28;5094969;27;45402;-78
2022/06/27 11:03:51;;;;;;;;;0.00;0.00;;;;;34.42;23.10;100888.53;5094244;27;45488;-79
2022/06/27 11:06:17;;;;;;;;;1.00;0.00;;;;;34.49;23.59;100900.47;5093923;27;45258;-78
2022/06/27 11:08:44;;;;;;;;;1.00;0.00;;;;;34.42;22.36;100884.91;5094905;27;45662;-78
2022/06/27 11:11:18;;;;;;;;;0.00;0.00;;;;;34.40;21.81;100863.16;5093523;27;47602;-78
2022/06/27 11:13:46;;;;;;;;;0.00;0.00;;;;;33.88;21.56;100881.00;5094068;27;45397;-78
2022/06/27 11:16:21;;;;;;;;;0.00;0.00;;;;;33.65;22.48;100881.72;5094924;27;45472;-77
2022/06/27 11:18:59;;;;;;;;;0.00;0.00;;;;;34.04;22.70;100879.25;5094733;27;45447;-77
2022/06/27 11:21:32;;;;;;;;;0.00;0.00;;;;;33.64;22.22;100858.09;5095970;27;45538;-78
2022/06/27 11:24:00;;;;;;;;;0.00;0.00;;;;;34.02;21.13;100871.19;5095103;27;45481;-77
2022/06/27 11:26:31;;;;;;;;;0.00;0.00;;;;;33.82;21.14;100877.09;5094617;27;45539;-77
2022/06/27 11:31:59;;;;;;;;;0.00;0.00;;;;;32.77;22.77;100887.91;5094575;27;45890;-77
2022/06/27 11:34:30;;;;;;;;;0.00;0.00;;;;;32.19;23.30;100895.91;5094581;27;45436;-78
2022/06/27 11:36:57;;;;;;;;;0.00;0.00;;;;;31.92;23.53;100885.16;5093252;27;45448;-79